sensor_id;sensor_type;location;lat;lon;timestamp;P1;durP1;ratioP1;P2;durP2;ratioP2
9801;SDS011;4940;50.900;4.672;2024-03-23T00:55:41;77.03;;;70.93;;
9801;SDS011;4940;50.900;4.672;2024-03-23T00:58:08;70.82;;;65.00;;
9801;SDS011;4940;50.900;4.672;2024-03-23T01:00:34;71.22;;;65.75;;
9801;SDS011;4940;50.900;4.672;2024-03-23T01:03:01;71.15;;;65.25;;
9801;SDS011;4940;50.900;4.672;2024-03-23T01:05:30;67.32;;;61.65;;
9801;SDS011;4940;50.900;4.672;2024-03-23T01:07:57;65.10;;;59.90;;
9801;SDS011;4940;50.900;4.672;2024-03-23T01:10:23;67.10;;;61.67;;
9801;SDS011;4940;50.900;4.672;2024-03-23T01:12:50;64.93;;;59.28;;
9801;SDS011;4940;50.900;4.672;2024-03-23T01:15:16;77.53;;;70.60;;
9801;SDS011;4940;50.900;4.672;2024-03-23T01:17:44;77.82;;;71.32;;
9801;SDS011;4940;50.900;4.672;2024-03-23T01:20:10;88.53;;;81.50;;
9801;SDS011;4940;50.900;4.672;2024-03-23T01:22:39;82.88;;;75.88;;
9801;SDS011;4940;50.900;4.672;2024-03-23T01:25:05;96.35;;;88.70;;
9801;SDS011;4940;50.900;4.672;2024-03-23T01:27:32;91.70;;;83.90;;
9801;SDS011;4940;50.900;4.672;2024-03-23T01:29:59;84.55;;;77.55;;
9801;SDS011;4940;50.900;4.672;2024-03-23T01:32:26;88.07;;;80.95;;
9801;SDS011;4940;50.900;4.672;2024-03-23T01:34:53;82.85;;;75.88;;
9801;SDS011;4940;50.900;4.672;2024-03-23T01:37:20;82.57;;;76.18;;
9801;SDS011;4940;50.900;4.672;2024-03-23T01:39:47;86.57;;;79.75;;
9801;SDS011;4940;50.900;4.672;2024-03-23T01:42:14;77.95;;;71.30;;
9801;SDS011;4940;50.900;4.672;2024-03-23T01:44:41;79.55;;;72.95;;
9801;SDS011;4940;50.900;4.672;2024-03-23T01:47:08;83.30;;;76.68;;
9801;SDS011;4940;50.900;4.672;2024-03-23T01:49:34;76.22;;;70.05;;
9801;SDS011;4940;50.900;4.672;2024-03-23T01:52:02;87.38;;;80.55;;
9801;SDS011;4940;50.900;4.672;2024-03-23T01:54:28;85.28;;;78.28;;
9801;SDS011;4940;50.900;4.672;2024-03-23T01:56:57;87.88;;;81.10;;
9801;SDS011;4940;50.900;4.672;2024-03-23T01:59:25;85.90;;;78.70;;
9801;SDS011;4940;50.900;4.672;2024-03-23T02:01:52;85.20;;;78.22;;
9801;SDS011;4940;50.900;4.672;2024-03-23T02:04:18;86.22;;;79.32;;
9801;SDS011;4940;50.900;4.672;2024-03-23T02:06:46;85.45;;;78.25;;
9801;SDS011;4940;50.900;4.672;2024-03-23T02:09:12;77.15;;;71.10;;
9801;SDS011;4940;50.900;4.672;2024-03-23T02:11:40;80.03;;;73.35;;
9801;SDS011;4940;50.900;4.672;2024-03-23T02:14:08;73.80;;;67.75;;
9801;SDS011;4940;50.900;4.672;2024-03-23T02:16:35;67.70;;;61.88;;
9801;SDS011;4940;50.900;4.672;2024-03-23T02:19:01;68.90;;;63.10;;
9801;SDS011;4940;50.900;4.672;2024-03-23T02:21:28;66.50;;;60.88;;
9801;SDS011;4940;50.900;4.672;2024-03-23T02:23:58;65.30;;;59.50;;
9801;SDS011;4940;50.900;4.672;2024-03-23T02:26:25;70.25;;;64.32;;
9801;SDS011;4940;50.900;4.672;2024-03-23T02:28:51;73.40;;;67.28;;
9801;SDS011;4940;50.900;4.672;2024-03-23T02:31:19;80.55;;;74.03;;
9801;SDS011;4940;50.900;4.672;2024-03-23T02:33:45;89.78;;;82.50;;
9801;SDS011;4940;50.900;4.672;2024-03-23T02:36:13;89.78;;;82.60;;
9801;SDS011;4940;50.900;4.672;2024-03-23T02:38:39;86.32;;;79.70;;
9801;SDS011;4940;50.900;4.672;2024-03-23T02:41:07;98.72;;;90.75;;
9801;SDS011;4940;50.900;4.672;2024-03-23T02:43:33;103.68;;;95.63;;
9801;SDS011;4940;50.900;4.672;2024-03-23T02:46:01;106.53;;;98.47;;
9801;SDS011;4940;50.900;4.672;2024-03-23T02:48:28;103.72;;;94.72;;
9801;SDS011;4940;50.900;4.672;2024-03-23T02:50:55;107.40;;;98.95;;
9801;SDS011;4940;50.900;4.672;2024-03-23T02:53:21;117.88;;;108.60;;
9801;SDS011;4940;50.900;4.672;2024-03-23T02:55:49;106.43;;;97.95;;
9801;SDS011;4940;50.900;4.672;2024-03-23T02:58:16;102.53;;;94.07;;
9801;SDS011;4940;50.900;4.672;2024-03-23T03:00:43;105.47;;;97.15;;
9801;SDS011;4940;50.900;4.672;2024-03-23T03:03:10;99.53;;;91.00;;
9801;SDS011;4940;50.900;4.672;2024-03-23T03:05:37;95.60;;;87.10;;
9801;SDS011;4940;50.900;4.672;2024-03-23T03:08:03;95.50;;;87.80;;
9801;SDS011;4940;50.900;4.672;2024-03-23T03:10:31;91.68;;;83.88;;
9801;SDS011;4940;50.900;4.672;2024-03-23T03:13:00;89.43;;;81.75;;
9801;SDS011;4940;50.900;4.672;2024-03-23T03:15:28;93.28;;;85.45;;
9801;SDS011;4940;50.900;4.672;2024-03-23T03:17:54;96.10;;;88.43;;
9801;SDS011;4940;50.900;4.672;2024-03-23T03:20:22;97.15;;;89.10;;
9801;SDS011;4940;50.900;4.672;2024-03-23T03:22:49;93.40;;;85.85;;
9801;SDS011;4940;50.900;4.672;2024-03-23T03:25:18;93.95;;;86.13;;
9801;SDS011;4940;50.900;4.672;2024-03-23T03:27:44;91.53;;;84.13;;
9801;SDS011;4940;50.900;4.672;2024-03-23T03:30:12;91.93;;;84.72;;
9801;SDS011;4940;50.900;4.672;2024-03-23T03:32:40;88.18;;;80.60;;
9801;SDS011;4940;50.900;4.672;2024-03-23T03:35:07;141.13;;;129.57;;
9801;SDS011;4940;50.900;4.672;2024-03-23T03:37:33;124.25;;;114.50;;
9801;SDS011;4940;50.900;4.672;2024-03-23T03:40:01;101.40;;;93.68;;
9801;SDS011;4940;50.900;4.672;2024-03-23T03:42:27;103.45;;;94.38;;
9801;SDS011;4940;50.900;4.672;2024-03-23T03:44:54;133.07;;;122.80;;
9801;SDS011;4940;50.900;4.672;2024-03-23T03:47:20;111.07;;;101.97;;
9801;SDS011;4940;50.900;4.672;2024-03-23T03:49:49;114.30;;;104.75;;
9801;SDS011;4940;50.900;4.672;2024-03-23T03:52:15;100.60;;;92.65;;
9801;SDS011;4940;50.900;4.672;2024-03-23T03:54:42;97.40;;;89.15;;
9801;SDS011;4940;50.900;4.672;2024-03-23T03:57:08;95.35;;;87.60;;
9801;SDS011;4940;50.900;4.672;2024-03-23T03:59:36;90.85;;;82.70;;
9801;SDS011;4940;50.900;4.672;2024-03-23T04:02:02;93.03;;;85.18;;
9801;SDS011;4940;50.900;4.672;2024-03-23T04:04:29;92.93;;;84.97;;
9801;SDS011;4940;50.900;4.672;2024-03-23T04:06:59;94.65;;;86.78;;
9801;SDS011;4940;50.900;4.672;2024-03-23T04:09:26;98.45;;;90.32;;
9801;SDS011;4940;50.900;4.672;2024-03-23T04:11:53;101.13;;;92.22;;
9801;SDS011;4940;50.900;4.672;2024-03-23T04:14:20;106.75;;;98.00;;
9801;SDS011;4940;50.900;4.672;2024-03-23T04:16:46;99.65;;;91.53;;
9801;SDS011;4940;50.900;4.672;2024-03-23T04:19:14;99.65;;;91.43;;
9801;SDS011;4940;50.900;4.672;2024-03-23T04:21:40;89.82;;;82.65;;
9801;SDS011;4940;50.900;4.672;2024-03-23T04:24:09;88.05;;;80.20;;
9801;SDS011;4940;50.900;4.672;2024-03-23T04:26:40;76.60;;;70.25;;
9801;SDS011;4940;50.900;4.672;2024-03-23T04:29:07;87.05;;;79.43;;
9801;SDS011;4940;50.900;4.672;2024-03-23T04:31:34;82.25;;;74.95;;
9801;SDS011;4940;50.900;4.672;2024-03-23T04:34:01;79.30;;;72.53;;
9801;SDS011;4940;50.900;4.672;2024-03-23T04:36:27;80.90;;;73.90;;
9801;SDS011;4940;50.900;4.672;2024-03-23T04:38:55;71.70;;;65.03;;
9801;SDS011;4940;50.900;4.672;2024-03-23T04:41:24;77.20;;;70.25;;
9801;SDS011;4940;50.900;4.672;2024-03-23T04:43:51;75.95;;;69.72;;
9801;SDS011;4940;50.900;4.672;2024-03-23T04:46:18;74.88;;;67.82;;
9801;SDS011;4940;50.900;4.672;2024-03-23T04:48:46;77.00;;;69.95;;
9801;SDS011;4940;50.900;4.672;2024-03-23T04:51:19;83.20;;;76.32;;
9801;SDS011;4940;50.900;4.672;2024-03-23T04:53:47;72.63;;;66.10;;
9801;SDS011;4940;50.900;4.672;2024-03-23T04:56:14;72.55;;;66.05;;
9801;SDS011;4940;50.900;4.672;2024-03-23T04:58:43;67.68;;;61.33;;
9801;SDS011;4940;50.900;4.672;2024-03-23T05:01:10;65.40;;;59.17;;
9801;SDS011;4940;50.900;4.672;2024-03-23T05:03:37;66.32;;;60.35;;
9801;SDS011;4940;50.900;4.672;2024-03-23T05:06:04;69.95;;;64.07;;
9801;SDS011;4940;50.900;4.672;2024-03-23T05:08:31;62.17;;;56.33;;
9801;SDS011;4940;50.900;4.672;2024-03-23T05:10:57;62.50;;;57.05;;
9801;SDS011;4940;50.900;4.672;2024-03-23T05:13:25;61.95;;;56.88;;
9801;SDS011;4940;50.900;4.672;2024-03-23T05:15:53;60.35;;;54.75;;
9801;SDS011;4940;50.900;4.672;2024-03-23T05:18:21;60.53;;;54.78;;
9801;SDS011;4940;50.900;4.672;2024-03-23T05:20:47;59.63;;;54.25;;
9801;SDS011;4940;50.900;4.672;2024-03-23T05:23:14;58.17;;;53.33;;
9801;SDS011;4940;50.900;4.672;2024-03-23T05:25:41;59.03;;;53.53;;
9801;SDS011;4940;50.900;4.672;2024-03-23T05:28:08;55.17;;;50.45;;
9801;SDS011;4940;50.900;4.672;2024-03-23T05:30:35;55.92;;;50.65;;
9801;SDS011;4940;50.900;4.672;2024-03-23T05:33:04;57.50;;;52.40;;
9801;SDS011;4940;50.900;4.672;2024-03-23T05:35:30;63.60;;;57.22;;
9801;SDS011;4940;50.900;4.672;2024-03-23T05:37:57;64.38;;;58.25;;
9801;SDS011;4940;50.900;4.672;2024-03-23T05:40:25;57.15;;;51.75;;
9801;SDS011;4940;50.900;4.672;2024-03-23T05:42:52;59.25;;;53.65;;
9801;SDS011;4940;50.900;4.672;2024-03-23T05:45:18;55.67;;;48.53;;
9801;SDS011;4940;50.900;4.672;2024-03-23T05:47:46;56.72;;;51.20;;
9801;SDS011;4940;50.900;4.672;2024-03-23T05:50:13;52.60;;;47.25;;
9801;SDS011;4940;50.900;4.672;2024-03-23T05:52:41;51.03;;;45.70;;
9801;SDS011;4940;50.900;4.672;2024-03-23T05:55:08;52.80;;;47.17;;
9801;SDS011;4940;50.900;4.672;2024-03-23T05:57:36;50.55;;;45.35;;
9801;SDS011;4940;50.900;4.672;2024-03-23T06:00:02;47.08;;;42.20;;
9801;SDS011;4940;50.900;4.672;2024-03-23T06:02:31;48.85;;;43.60;;
9801;SDS011;4940;50.900;4.672;2024-03-23T06:04:58;49.85;;;44.75;;
9801;SDS011;4940;50.900;4.672;2024-03-23T06:07:27;52.17;;;44.00;;
9801;SDS011;4940;50.900;4.672;2024-03-23T06:09:53;51.38;;;43.90;;
9801;SDS011;4940;50.900;4.672;2024-03-23T06:12:21;51.88;;;44.22;;
9801;SDS011;4940;50.900;4.672;2024-03-23T06:14:47;51.67;;;46.22;;
9801;SDS011;4940;50.900;4.672;2024-03-23T06:17:14;52.42;;;46.58;;
9801;SDS011;4940;50.900;4.672;2024-03-23T06:19:41;54.88;;;45.38;;
9801;SDS011;4940;50.900;4.672;2024-03-23T06:22:08;50.78;;;45.20;;
9801;SDS011;4940;50.900;4.672;2024-03-23T06:24:36;54.30;;;45.85;;
9801;SDS011;4940;50.900;4.672;2024-03-23T06:27:03;50.85;;;45.35;;
9801;SDS011;4940;50.900;4.672;2024-03-23T06:29:29;49.72;;;43.72;;
9801;SDS011;4940;50.900;4.672;2024-03-23T06:31:57;48.28;;;41.75;;
9801;SDS011;4940;50.900;4.672;2024-03-23T06:34:23;49.35;;;43.53;;
9801;SDS011;4940;50.900;4.672;2024-03-23T06:36:51;48.55;;;43.30;;
9801;SDS011;4940;50.900;4.672;2024-03-23T06:39:17;47.28;;;42.38;;
9801;SDS011;4940;50.900;4.672;2024-03-23T06:41:51;46.63;;;41.80;;
9801;SDS011;4940;50.900;4.672;2024-03-23T06:44:18;50.42;;;44.58;;
9801;SDS011;4940;50.900;4.672;2024-03-23T06:46:45;48.92;;;43.97;;
9801;SDS011;4940;50.900;4.672;2024-03-23T06:49:12;50.95;;;45.53;;
9801;SDS011;4940;50.900;4.672;2024-03-23T06:51:40;49.38;;;43.75;;
9801;SDS011;4940;50.900;4.672;2024-03-23T06:54:06;45.65;;;41.28;;
9801;SDS011;4940;50.900;4.672;2024-03-23T06:56:33;48.33;;;43.25;;
9801;SDS011;4940;50.900;4.672;2024-03-23T06:59:01;45.25;;;40.47;;
9801;SDS011;4940;50.900;4.672;2024-03-23T07:01:28;46.17;;;41.20;;
9801;SDS011;4940;50.900;4.672;2024-03-23T07:03:54;44.45;;;39.85;;
9801;SDS011;4940;50.900;4.672;2024-03-23T07:06:21;46.72;;;40.80;;
9801;SDS011;4940;50.900;4.672;2024-03-23T07:08:48;49.88;;;44.95;;
9801;SDS011;4940;50.900;4.672;2024-03-23T07:11:18;48.78;;;43.67;;
9801;SDS011;4940;50.900;4.672;2024-03-23T07:13:45;48.88;;;40.97;;
9801;SDS011;4940;50.900;4.672;2024-03-23T07:16:14;51.28;;;46.20;;
9801;SDS011;4940;50.900;4.672;2024-03-23T07:18:40;52.42;;;46.92;;
9801;SDS011;4940;50.900;4.672;2024-03-23T07:21:08;50.78;;;45.83;;
9801;SDS011;4940;50.900;4.672;2024-03-23T07:23:34;49.40;;;44.65;;
9801;SDS011;4940;50.900;4.672;2024-03-23T07:26:02;45.00;;;40.75;;
9801;SDS011;4940;50.900;4.672;2024-03-23T07:28:29;44.10;;;39.75;;
9801;SDS011;4940;50.900;4.672;2024-03-23T07:31:02;46.33;;;42.13;;
9801;SDS011;4940;50.900;4.672;2024-03-23T07:33:31;51.03;;;46.15;;
9801;SDS011;4940;50.900;4.672;2024-03-23T07:35:58;47.63;;;43.38;;
9801;SDS011;4940;50.900;4.672;2024-03-23T07:38:25;45.42;;;41.22;;
9801;SDS011;4940;50.900;4.672;2024-03-23T07:41:02;44.97;;;40.85;;
9801;SDS011;4940;50.900;4.672;2024-03-23T07:43:28;42.95;;;38.95;;
9801;SDS011;4940;50.900;4.672;2024-03-23T07:45:56;42.97;;;39.38;;
9801;SDS011;4940;50.900;4.672;2024-03-23T07:48:22;44.65;;;40.38;;
9801;SDS011;4940;50.900;4.672;2024-03-23T07:51:00;44.53;;;40.45;;
9801;SDS011;4940;50.900;4.672;2024-03-23T07:53:28;39.30;;;36.15;;
9801;SDS011;4940;50.900;4.672;2024-03-23T07:55:55;44.33;;;40.13;;
9801;SDS011;4940;50.900;4.672;2024-03-23T07:58:23;42.35;;;38.65;;
9801;SDS011;4940;50.900;4.672;2024-03-23T08:00:49;46.88;;;42.13;;
9801;SDS011;4940;50.900;4.672;2024-03-23T08:03:16;41.95;;;38.20;;
9801;SDS011;4940;50.900;4.672;2024-03-23T08:05:43;42.60;;;38.92;;
9801;SDS011;4940;50.900;4.672;2024-03-23T08:08:11;36.17;;;33.20;;
9801;SDS011;4940;50.900;4.672;2024-03-23T08:10:46;29.70;;;27.48;;
9801;SDS011;4940;50.900;4.672;2024-03-23T08:13:14;30.40;;;27.88;;
9801;SDS011;4940;50.900;4.672;2024-03-23T08:15:40;25.10;;;23.02;;
9801;SDS011;4940;50.900;4.672;2024-03-23T08:18:07;17.48;;;16.13;;
9801;SDS011;4940;50.900;4.672;2024-03-23T08:20:35;9.48;;;8.20;;
9801;SDS011;4940;50.900;4.672;2024-03-23T08:23:02;6.30;;;3.47;;
9801;SDS011;4940;50.900;4.672;2024-03-23T08:25:31;8.52;;;2.72;;
9801;SDS011;4940;50.900;4.672;2024-03-23T08:27:59;5.88;;;1.50;;
9801;SDS011;4940;50.900;4.672;2024-03-23T08:30:25;4.95;;;2.00;;
9801;SDS011;4940;50.900;4.672;2024-03-23T08:32:52;5.60;;;1.80;;
9801;SDS011;4940;50.900;4.672;2024-03-23T08:35:19;5.78;;;1.80;;
9801;SDS011;4940;50.900;4.672;2024-03-23T08:37:46;3.88;;;1.58;;
9801;SDS011;4940;50.900;4.672;2024-03-23T08:40:12;5.53;;;1.85;;
9801;SDS011;4940;50.900;4.672;2024-03-23T08:42:41;4.75;;;1.70;;
9801;SDS011;4940;50.900;4.672;2024-03-23T08:45:07;5.47;;;2.17;;
9801;SDS011;4940;50.900;4.672;2024-03-23T08:47:35;5.28;;;1.60;;
9801;SDS011;4940;50.900;4.672;2024-03-23T08:50:01;8.13;;;2.08;;
9801;SDS011;4940;50.900;4.672;2024-03-23T08:52:29;6.20;;;1.95;;
9801;SDS011;4940;50.900;4.672;2024-03-23T08:54:55;5.57;;;1.80;;
9801;SDS011;4940;50.900;4.672;2024-03-23T08:57:23;5.10;;;1.90;;
9801;SDS011;4940;50.900;4.672;2024-03-23T08:59:50;5.65;;;2.30;;
9801;SDS011;4940;50.900;4.672;2024-03-23T09:02:17;7.07;;;1.50;;
9801;SDS011;4940;50.900;4.672;2024-03-23T09:04:44;8.95;;;1.75;;
9801;SDS011;4940;50.900;4.672;2024-03-23T09:07:11;7.40;;;2.10;;
9801;SDS011;4940;50.900;4.672;2024-03-23T09:09:38;7.45;;;1.85;;
9801;SDS011;4940;50.900;4.672;2024-03-23T09:12:05;5.03;;;1.77;;
9801;SDS011;4940;50.900;4.672;2024-03-23T09:14:32;6.30;;;1.63;;
9801;SDS011;4940;50.900;4.672;2024-03-23T09:17:01;5.95;;;1.90;;
9801;SDS011;4940;50.900;4.672;2024-03-23T09:19:27;4.85;;;1.77;;
9801;SDS011;4940;50.900;4.672;2024-03-23T09:21:54;6.03;;;1.77;;
9801;SDS011;4940;50.900;4.672;2024-03-23T09:24:21;4.82;;;1.75;;
9801;SDS011;4940;50.900;4.672;2024-03-23T09:26:48;4.60;;;1.73;;
9801;SDS011;4940;50.900;4.672;2024-03-23T09:29:15;6.43;;;1.58;;
9801;SDS011;4940;50.900;4.672;2024-03-23T09:31:42;6.85;;;1.50;;
9801;SDS011;4940;50.900;4.672;2024-03-23T09:34:10;3.88;;;1.63;;
9801;SDS011;4940;50.900;4.672;2024-03-23T09:36:37;6.50;;;1.75;;
9801;SDS011;4940;50.900;4.672;2024-03-23T09:39:03;5.50;;;1.20;;
9801;SDS011;4940;50.900;4.672;2024-03-23T09:41:30;4.90;;;1.52;;
9801;SDS011;4940;50.900;4.672;2024-03-23T09:43:57;2.15;;;1.25;;
9801;SDS011;4940;50.900;4.672;2024-03-23T09:46:27;6.28;;;1.67;;
9801;SDS011;4940;50.900;4.672;2024-03-23T09:48:53;3.80;;;1.45;;
9801;SDS011;4940;50.900;4.672;2024-03-23T09:51:24;7.22;;;1.90;;
9801;SDS011;4940;50.900;4.672;2024-03-23T09:53:50;4.03;;;1.40;;
9801;SDS011;4940;50.900;4.672;2024-03-23T09:56:18;4.10;;;1.73;;
9801;SDS011;4940;50.900;4.672;2024-03-23T09:58:44;3.03;;;1.65;;
9801;SDS011;4940;50.900;4.672;2024-03-23T10:01:12;8.00;;;1.85;;
9801;SDS011;4940;50.900;4.672;2024-03-23T10:03:44;4.50;;;1.58;;
9801;SDS011;4940;50.900;4.672;2024-03-23T10:06:11;5.70;;;2.05;;
9801;SDS011;4940;50.900;4.672;2024-03-23T10:08:39;7.60;;;1.88;;
9801;SDS011;4940;50.900;4.672;2024-03-23T10:11:13;4.35;;;1.73;;
9801;SDS011;4940;50.900;4.672;2024-03-23T10:13:41;4.78;;;1.60;;
9801;SDS011;4940;50.900;4.672;2024-03-23T10:16:09;3.72;;;2.08;;
9801;SDS011;4940;50.900;4.672;2024-03-23T10:18:39;4.03;;;1.60;;
9801;SDS011;4940;50.900;4.672;2024-03-23T10:21:06;4.57;;;2.05;;
9801;SDS011;4940;50.900;4.672;2024-03-23T10:23:33;2.90;;;1.60;;
9801;SDS011;4940;50.900;4.672;2024-03-23T10:26:13;4.40;;;1.83;;
9801;SDS011;4940;50.900;4.672;2024-03-23T10:29:02;2.67;;;1.65;;
9801;SDS011;4940;50.900;4.672;2024-03-23T10:31:33;6.53;;;1.75;;
9801;SDS011;4940;50.900;4.672;2024-03-23T10:34:02;8.98;;;2.00;;
9801;SDS011;4940;50.900;4.672;2024-03-23T10:36:30;4.80;;;1.80;;
9801;SDS011;4940;50.900;4.672;2024-03-23T10:38:56;4.93;;;1.77;;
9801;SDS011;4940;50.900;4.672;2024-03-23T10:41:27;3.65;;;1.77;;
9801;SDS011;4940;50.900;4.672;2024-03-23T10:43:54;4.70;;;2.30;;
9801;SDS011;4940;50.900;4.672;2024-03-23T10:46:24;4.88;;;1.85;;
9801;SDS011;4940;50.900;4.672;2024-03-23T10:48:50;3.60;;;1.70;;
9801;SDS011;4940;50.900;4.672;2024-03-23T10:51:18;4.28;;;1.70;;
9801;SDS011;4940;50.900;4.672;2024-03-23T10:53:44;5.53;;;2.03;;
9801;SDS011;4940;50.900;4.672;2024-03-23T10:56:12;3.38;;;1.48;;
9801;SDS011;4940;50.900;4.672;2024-03-23T10:58:42;6.00;;;1.65;;
9801;SDS011;4940;50.900;4.672;2024-03-23T11:01:12;8.15;;;1.90;;
9801;SDS011;4940;50.900;4.672;2024-03-23T11:03:39;3.75;;;1.40;;
9801;SDS011;4940;50.900;4.672;2024-03-23T11:06:10;4.70;;;1.42;;
9801;SDS011;4940;50.900;4.672;2024-03-23T11:09:00;4.30;;;1.30;;
9801;SDS011;4940;50.900;4.672;2024-03-23T11:11:28;3.42;;;1.45;;
9801;SDS011;4940;50.900;4.672;2024-03-23T11:13:59;3.55;;;1.13;;
9801;SDS011;4940;50.900;4.672;2024-03-23T11:16:26;2.63;;;1.20;;
9801;SDS011;4940;50.900;4.672;2024-03-23T11:18:55;3.17;;;1.20;;
9801;SDS011;4940;50.900;4.672;2024-03-23T11:22:01;3.20;;;1.00;;
9801;SDS011;4940;50.900;4.672;2024-03-23T11:24:28;5.53;;;1.10;;
9801;SDS011;4940;50.900;4.672;2024-03-23T11:26:56;2.08;;;1.10;;
9801;SDS011;4940;50.900;4.672;2024-03-23T11:29:27;1.58;;;0.80;;
9801;SDS011;4940;50.900;4.672;2024-03-23T11:31:54;3.90;;;1.42;;
9801;SDS011;4940;50.900;4.672;2024-03-23T11:34:21;3.83;;;0.90;;
9801;SDS011;4940;50.900;4.672;2024-03-23T11:36:49;2.72;;;1.20;;
9801;SDS011;4940;50.900;4.672;2024-03-23T11:39:16;3.08;;;0.88;;
9801;SDS011;4940;50.900;4.672;2024-03-23T11:41:47;3.45;;;1.13;;
9801;SDS011;4940;50.900;4.672;2024-03-23T11:44:15;2.25;;;0.90;;
9801;SDS011;4940;50.900;4.672;2024-03-23T11:46:44;4.70;;;0.90;;
9801;SDS011;4940;50.900;4.672;2024-03-23T11:49:20;1.67;;;1.02;;
9801;SDS011;4940;50.900;4.672;2024-03-23T11:51:48;2.35;;;1.20;;
9801;SDS011;4940;50.900;4.672;2024-03-23T11:54:14;4.10;;;1.10;;
9801;SDS011;4940;50.900;4.672;2024-03-23T11:56:53;2.80;;;0.85;;
9801;SDS011;4940;50.900;4.672;2024-03-23T11:59:29;1.55;;;0.75;;
9801;SDS011;4940;50.900;4.672;2024-03-23T12:01:59;7.70;;;2.10;;
9801;SDS011;4940;50.900;4.672;2024-03-23T12:04:26;3.72;;;0.95;;
9801;SDS011;4940;50.900;4.672;2024-03-23T12:07:08;1.50;;;0.90;;
9801;SDS011;4940;50.900;4.672;2024-03-23T12:09:35;5.60;;;0.90;;
9801;SDS011;4940;50.900;4.672;2024-03-23T12:12:05;1.75;;;0.82;;
9801;SDS011;4940;50.900;4.672;2024-03-23T12:14:33;2.55;;;1.05;;
9801;SDS011;4940;50.900;4.672;2024-03-23T12:17:08;1.38;;;0.63;;
9801;SDS011;4940;50.900;4.672;2024-03-23T12:19:38;2.30;;;0.98;;
9801;SDS011;4940;50.900;4.672;2024-03-23T12:22:06;7.68;;;1.05;;
9801;SDS011;4940;50.900;4.672;2024-03-23T12:24:33;1.42;;;0.70;;
9801;SDS011;4940;50.900;4.672;2024-03-23T12:27:01;2.67;;;0.80;;
9801;SDS011;4940;50.900;4.672;2024-03-23T12:29:28;4.97;;;1.02;;
9801;SDS011;4940;50.900;4.672;2024-03-23T12:31:56;1.83;;;0.90;;
9801;SDS011;4940;50.900;4.672;2024-03-23T12:34:24;1.35;;;0.73;;
9801;SDS011;4940;50.900;4.672;2024-03-23T12:36:50;4.70;;;0.88;;
9801;SDS011;4940;50.900;4.672;2024-03-23T12:39:17;4.32;;;0.85;;
9801;SDS011;4940;50.900;4.672;2024-03-23T12:41:45;0.98;;;0.68;;
9801;SDS011;4940;50.900;4.672;2024-03-23T12:44:12;1.65;;;0.43;;
9801;SDS011;4940;50.900;4.672;2024-03-23T12:46:40;1.40;;;0.32;;
9801;SDS011;4940;50.900;4.672;2024-03-23T12:49:06;0.68;;;0.50;;
9801;SDS011;4940;50.900;4.672;2024-03-23T12:51:35;0.85;;;0.43;;
9801;SDS011;4940;50.900;4.672;2024-03-23T12:54:01;3.58;;;0.90;;
9801;SDS011;4940;50.900;4.672;2024-03-23T12:56:29;0.98;;;0.60;;
9801;SDS011;4940;50.900;4.672;2024-03-23T12:58:55;2.88;;;0.95;;
9801;SDS011;4940;50.900;4.672;2024-03-23T13:01:23;3.00;;;0.65;;
9801;SDS011;4940;50.900;4.672;2024-03-23T13:03:49;3.22;;;0.90;;
9801;SDS011;4940;50.900;4.672;2024-03-23T13:06:16;3.40;;;1.05;;
9801;SDS011;4940;50.900;4.672;2024-03-23T13:08:45;4.32;;;0.70;;
9801;SDS011;4940;50.900;4.672;2024-03-23T13:11:12;1.88;;;0.85;;
9801;SDS011;4940;50.900;4.672;2024-03-23T13:13:39;2.13;;;0.80;;
9801;SDS011;4940;50.900;4.672;2024-03-23T13:16:07;3.10;;;0.77;;
9801;SDS011;4940;50.900;4.672;2024-03-23T13:18:34;2.80;;;1.05;;
9801;SDS011;4940;50.900;4.672;2024-03-23T13:21:15;3.80;;;0.77;;
9801;SDS011;4940;50.900;4.672;2024-03-23T13:23:49;3.78;;;1.00;;
9801;SDS011;4940;50.900;4.672;2024-03-23T13:26:16;4.53;;;1.10;;
9801;SDS011;4940;50.900;4.672;2024-03-23T13:28:43;3.80;;;0.85;;
9801;SDS011;4940;50.900;4.672;2024-03-23T13:31:11;5.68;;;1.20;;
9801;SDS011;4940;50.900;4.672;2024-03-23T13:33:38;4.85;;;1.35;;
9801;SDS011;4940;50.900;4.672;2024-03-23T13:36:09;3.90;;;0.90;;
9801;SDS011;4940;50.900;4.672;2024-03-23T13:38:36;1.42;;;0.80;;
9801;SDS011;4940;50.900;4.672;2024-03-23T13:41:08;2.92;;;0.90;;
9801;SDS011;4940;50.900;4.672;2024-03-23T13:43:37;2.83;;;0.82;;
9801;SDS011;4940;50.900;4.672;2024-03-23T13:46:12;0.85;;;0.60;;
9801;SDS011;4940;50.900;4.672;2024-03-23T13:48:39;4.00;;;0.85;;
9801;SDS011;4940;50.900;4.672;2024-03-23T13:51:12;4.32;;;0.90;;
9801;SDS011;4940;50.900;4.672;2024-03-23T13:53:38;4.32;;;1.00;;
9801;SDS011;4940;50.900;4.672;2024-03-23T13:56:12;2.80;;;0.90;;
9801;SDS011;4940;50.900;4.672;2024-03-23T13:58:39;3.15;;;0.80;;
9801;SDS011;4940;50.900;4.672;2024-03-23T14:01:15;3.88;;;1.00;;
9801;SDS011;4940;50.900;4.672;2024-03-23T14:03:42;2.58;;;0.80;;
9801;SDS011;4940;50.900;4.672;2024-03-23T14:06:24;2.67;;;0.90;;
9801;SDS011;4940;50.900;4.672;2024-03-23T14:09:05;2.22;;;0.70;;
9801;SDS011;4940;50.900;4.672;2024-03-23T14:15:04;3.53;;;0.70;;
9801;SDS011;4940;50.900;4.672;2024-03-23T14:17:34;2.10;;;1.00;;
9801;SDS011;4940;50.900;4.672;2024-03-23T14:20:01;3.05;;;1.00;;
9801;SDS011;4940;50.900;4.672;2024-03-23T14:22:42;5.10;;;1.20;;
9801;SDS011;4940;50.900;4.672;2024-03-23T14:25:11;2.63;;;1.20;;
9801;SDS011;4940;50.900;4.672;2024-03-23T14:39:09;10.68;;;9.98;;
9801;SDS011;4940;50.900;4.672;2024-03-23T14:41:38;14.38;;;13.48;;
9801;SDS011;4940;50.900;4.672;2024-03-23T14:44:04;14.10;;;13.15;;
9801;SDS011;4940;50.900;4.672;2024-03-23T14:46:32;17.42;;;16.27;;
9801;SDS011;4940;50.900;4.672;2024-03-23T14:48:59;14.30;;;13.30;;
9801;SDS011;4940;50.900;4.672;2024-03-23T14:51:28;18.75;;;17.25;;
9801;SDS011;4940;50.900;4.672;2024-03-23T14:53:54;17.95;;;16.63;;
9801;SDS011;4940;50.900;4.672;2024-03-23T14:56:25;18.60;;;17.17;;
9801;SDS011;4940;50.900;4.672;2024-03-23T14:58:52;16.38;;;15.18;;
9801;SDS011;4940;50.900;4.672;2024-03-23T15:01:20;13.60;;;12.80;;
9801;SDS011;4940;50.900;4.672;2024-03-23T15:03:47;9.43;;;8.50;;
9801;SDS011;4940;50.900;4.672;2024-03-23T15:06:18;10.82;;;9.80;;
9801;SDS011;4940;50.900;4.672;2024-03-23T15:08:45;11.13;;;10.38;;
9801;SDS011;4940;50.900;4.672;2024-03-23T15:11:12;10.80;;;10.20;;
9801;SDS011;4940;50.900;4.672;2024-03-23T15:13:40;11.65;;;10.75;;
9801;SDS011;4940;50.900;4.672;2024-03-23T15:16:08;12.60;;;11.65;;
9801;SDS011;4940;50.900;4.672;2024-03-23T15:18:35;13.30;;;12.52;;
9801;SDS011;4940;50.900;4.672;2024-03-23T15:21:03;11.77;;;10.90;;
9801;SDS011;4940;50.900;4.672;2024-03-23T15:23:31;8.13;;;7.60;;
9801;SDS011;4940;50.900;4.672;2024-03-23T15:25:59;7.82;;;7.15;;
9801;SDS011;4940;50.900;4.672;2024-03-23T15:28:25;5.13;;;4.72;;
9801;SDS011;4940;50.900;4.672;2024-03-23T15:31:04;4.32;;;2.92;;
9801;SDS011;4940;50.900;4.672;2024-03-23T15:33:31;5.88;;;3.00;;
9801;SDS011;4940;50.900;4.672;2024-03-23T15:35:58;3.17;;;1.70;;
9801;SDS011;4940;50.900;4.672;2024-03-23T15:38:24;2.05;;;1.48;;
9801;SDS011;4940;50.900;4.672;2024-03-23T15:40:52;4.45;;;1.25;;
9801;SDS011;4940;50.900;4.672;2024-03-23T15:43:18;4.32;;;1.30;;
9801;SDS011;4940;50.900;4.672;2024-03-23T15:45:53;5.80;;;1.23;;
9801;SDS011;4940;50.900;4.672;2024-03-23T15:48:21;2.28;;;0.90;;
9801;SDS011;4940;50.900;4.672;2024-03-23T15:50:52;3.17;;;1.20;;
9801;SDS011;4940;50.900;4.672;2024-03-23T15:53:18;3.38;;;1.40;;
9801;SDS011;4940;50.900;4.672;2024-03-23T15:55:52;3.33;;;1.10;;
9801;SDS011;4940;50.900;4.672;2024-03-23T15:58:19;3.15;;;1.08;;
9801;SDS011;4940;50.900;4.672;2024-03-23T16:00:53;3.88;;;1.30;;
9801;SDS011;4940;50.900;4.672;2024-03-23T16:03:21;4.18;;;1.20;;
9801;SDS011;4940;50.900;4.672;2024-03-23T16:05:52;4.55;;;1.20;;
9801;SDS011;4940;50.900;4.672;2024-03-23T16:08:18;3.97;;;1.58;;
9801;SDS011;4940;50.900;4.672;2024-03-23T16:10:46;5.00;;;1.40;;
9801;SDS011;4940;50.900;4.672;2024-03-23T16:13:12;3.17;;;1.20;;
9801;SDS011;4940;50.900;4.672;2024-03-23T16:15:39;4.93;;;1.40;;